Time;durP1;ratioP1;P1;durP2;ratioP2;P2;SDS_P1;SDS_P2;PMS_P1;PMS_P2;Temp;Humidity;BMP_temperature;BMP_pressure;BME280_temperature;BME280_humidity;BME280_pressure;Samples;Min_cycle;Max_cycle;Signal;HPM_P1;HPM_P2
2022/07/04 00:01:47;;;;;;;7.57;4.90;;;;;;;;;;4998545;28;20234;-69
2022/07/04 00:04:30;;;;;;;6.00;5.40;;;;;;;;;;5000603;28;20587;-69
2022/07/04 00:07:33;;;;;;;9.30;5.27;;;;;;;;;;4997874;28;20227;-69
2022/07/04 00:10:16;;;;;;;9.70;5.97;;;;;;;;;;4999777;28;20319;-69
2022/07/04 00:13:08;;;;;;;5.80;5.17;;;;;;;;;;4959573;28;20589;-70
2022/07/04 00:16:05;;;;;;;7.27;4.90;;;;;;;;;;4999901;28;20317;-69
2022/07/04 00:18:58;;;;;;;9.77;5.03;;;;;;;;;;4997902;28;20277;-69
2022/07/04 00:21:37;;;;;;;7.93;4.70;;;;;;;;;;4969683;28;20276;-69
2022/07/04 00:25:01;;;;;;;5.63;4.63;;;;;;;;;;4976209;28;20253;-68
2022/07/04 00:27:38;;;;;;;7.87;4.90;;;;;;;;;;4995320;28;20238;-69
2022/07/04 00:30:23;;;;;;;;;;;;;;;;;;;;;
2022/07/04 00:33:17;;;;;;;9.10;5.30;;;;;;;;;;5000313;28;20277;-69
2022/07/04 00:36:06;;;;;;;8.33;5.57;;;;;;;;;;4978809;28;20227;-69
2022/07/04 00:42:07;;;;;;;9.60;7.33;;;;;;;;;;5000860;28;20227;-69
2022/07/04 00:48:39;;;;;;;6.90;5.87;;;;;;;;;;4982461;28;20242;-69
2022/07/04 00:51:36;;;;;;;6.30;5.27;;;;;;;;;;5001569;28;20889;-69
2022/07/04 00:54:15;;;;;;;8.13;6.33;;;;;;;;;;4982941;28;20227;-69
2022/07/04 00:57:25;;;;;;;5.97;5.30;;;;;;;;;;4973156;28;20362;-69
2022/07/04 01:00:03;;;;;;;6.03;5.30;;;;;;;;;;5000951;28;20231;-69
2022/07/04 01:03:14;;;;;;;6.63;5.50;;;;;;;;;;4994524;28;214410;-69
2022/07/04 01:12:56;;;;;;;;;;;;;;;;;;;;;
2022/07/04 01:16:19;;;;;;;9.40;5.30;;;;;;;;;;4994248;28;20219;-69
2022/07/04 01:19:43;;;;;;;5.73;4.70;;;;;;;;;;4986761;28;20219;-69
2022/07/04 01:22:55;;;;;;;6.83;5.23;;;;;;;;;;5001206;28;20229;-69
2022/07/04 01:26:13;;;;;;;6.03;4.10;;;;;;;;;;5001322;28;20285;-68
2022/07/04 01:29:01;;;;;;;10.50;4.97;;;;;;;;;;5002194;28;20262;-69
2022/07/04 01:32:03;;;;;;;;;;;;;;;;;;;;;
2022/07/04 01:35:03;;;;;;;7.00;4.60;;;;;;;;;;5002083;28;23177;-68
2022/07/04 01:37:37;;;;;;;6.87;5.13;;;;;;;;;;5002805;28;20234;-69
2022/07/04 01:40:22;;;;;;;9.30;5.40;;;;;;;;;;5000621;28;20221;-69
2022/07/04 01:43:20;;;;;;;10.37;5.33;;;;;;;;;;4987809;28;20242;-69
2022/07/04 01:46:45;;;;;;;13.70;6.70;;;;;;;;;;5002370;28;20370;-68
2022/07/04 01:49:47;;;;;;;8.67;5.37;;;;;;;;;;5001069;28;20235;-69
2022/07/04 01:56:23;;;;;;;12.63;5.43;;;;;;;;;;4939223;28;20284;-71
2022/07/04 01:59:17;;;;;;;8.23;5.10;;;;;;;;;;4901840;29;20319;-69
2022/07/04 02:05:15;;;;;;;8.63;4.87;;;;;;;;;;4914095;29;20272;-72
2022/07/04 02:08:21;;;;;;;6.33;5.20;;;;;;;;;;4919722;29;20229;-69
2022/07/04 02:11:02;;;;;;;8.13;4.77;;;;;;;;;;4921596;28;20233;-68
2022/07/04 02:14:10;;;;;;;5.63;5.03;;;;;;;;;;4920542;28;20281;-69
2022/07/04 02:16:59;;;;;;;9.93;5.10;;;;;;;;;;4921291;29;20236;-68
2022/07/04 02:19:58;;;;;;;7.83;4.67;;;;;;;;;;4908403;29;20270;-69
2022/07/04 02:23:02;;;;;;;8.30;5.87;;;;;;;;;;4920104;29;20237;-69
2022/07/04 02:26:00;;;;;;;7.87;5.53;;;;;;;;;;4907841;29;20740;-69
2022/07/04 02:28:51;;;;;;;7.03;5.37;;;;;;;;;;4920438;29;20241;-72
2022/07/04 02:31:43;;;;;;;11.10;5.20;;;;;;;;;;5001391;28;20317;-69
2022/07/04 02:34:25;;;;;;;8.00;5.47;;;;;;;;;;5000048;28;20809;-69
2022/07/04 02:37:11;;;;;;;7.87;5.50;;;;;;;;;;4998545;28;20230;-69
2022/07/04 02:40:35;;;;;;;11.13;6.43;;;;;;;;;;4984957;28;20235;-69
2022/07/04 02:43:42;;;;;;;8.70;6.20;;;;;;;;;;4998741;28;20292;-69
2022/07/04 02:46:37;;;;;;;8.63;5.80;;;;;;;;;;4974066;28;20239;-69
2022/07/04 02:49:33;;;;;;;10.03;6.27;;;;;;;;;;4998782;28;31556;-68
2022/07/04 02:53:12;;;;;;;9.77;5.97;;;;;;;;;;4971349;28;20313;-69
2022/07/04 02:56:12;;;;;;;13.53;6.20;;;;;;;;;;4981817;28;20310;-69
2022/07/04 02:59:36;;;;;;;8.43;6.57;;;;;;;;;;4992221;28;20247;-69
2022/07/04 03:02:43;;;;;;;9.83;5.53;;;;;;;;;;4982336;28;20238;-69
2022/07/04 03:05:42;;;;;;;9.77;5.23;;;;;;;;;;4999235;28;20238;-68
2022/07/04 03:08:37;;;;;;;6.10;5.13;;;;;;;;;;4972569;28;20699;-64
2022/07/04 03:11:20;;;;;;;5.63;5.00;;;;;;;;;;5000102;28;20246;-75
2022/07/04 03:14:01;;;;;;;9.33;5.57;;;;;;;;;;4987320;28;29453;-71
2022/07/04 03:16:33;;;;;;;5.97;5.23;;;;;;;;;;4904691;28;234307;-70
2022/07/04 03:19:42;;;;;;;8.73;5.37;;;;;;;;;;4955822;28;217985;-72
2022/07/04 03:22:25;;;;;;;9.37;6.00;;;;;;;;;;4984845;28;21320;-71
2022/07/04 03:25:47;;;;;;;12.17;6.47;;;;;;;;;;4993906;28;20304;-70
2022/07/04 03:28:40;;;;;;;12.67;6.53;;;;;;;;;;4990215;28;29758;-69
2022/07/04 03:31:33;;;;;;;10.23;6.07;;;;;;;;;;4974561;28;20232;-72
2022/07/04 03:34:25;;;;;;;9.80;6.60;;;;;;;;;;4976406;28;20230;-72
2022/07/04 03:37:09;;;;;;;10.40;6.90;;;;;;;;;;4973211;28;20729;-69
2022/07/04 03:39:57;;;;;;;7.93;5.93;;;;;;;;;;4968803;28;20239;-71
2022/07/04 03:43:27;;;;;;;13.27;6.30;;;;;;;;;;4952916;28;20226;-69
2022/07/04 03:46:01;;;;;;;10.53;5.90;;;;;;;;;;4991062;28;20583;-67
2022/07/04 03:51:34;;;;;;;10.20;6.43;;;;;;;;;;4982943;28;20622;-67
2022/07/04 03:54:25;;;;;;;15.70;7.07;;;;;;;;;;4991723;28;26167;-69
2022/07/04 03:57:17;;;;;;;19.50;7.27;;;;;;;;;;4963046;28;20223;-68
2022/07/04 04:00:13;;;;;;;10.73;6.90;;;;;;;;;;4977444;28;20267;-69
2022/07/04 04:03:00;;;;;;;13.33;6.50;;;;;;;;;;4964708;28;20257;-69
2022/07/04 04:05:42;;;;;;;9.20;6.20;;;;;;;;;;4974918;28;20221;-70
2022/07/04 04:08:38;;;;;;;8.70;5.73;;;;;;;;;;4993246;28;20238;-68
2022/07/04 04:11:15;;;;;;;13.50;5.57;;;;;;;;;;4976670;28;49555;-69
2022/07/04 04:14:33;;;;;;;10.23;5.03;;;;;;;;;;4955504;28;20219;-68
2022/07/04 04:17:22;;;;;;;8.03;5.03;;;;;;;;;;4990945;28;20238;-67
2022/07/04 04:20:45;;;;;;;8.73;4.70;;;;;;;;;;4991650;28;20273;-67
2022/07/04 04:23:40;;;;;;;6.33;4.77;;;;;;;;;;4974909;28;20236;-67
2022/07/04 04:26:48;;;;;;;10.30;4.87;;;;;;;;;;4985796;28;20249;-67
2022/07/04 04:29:47;;;;;;;10.87;5.30;;;;;;;;;;4915276;29;20243;-68
2022/07/04 04:32:56;;;;;;;8.07;5.10;;;;;;;;;;4905703;29;20264;-67
2022/07/04 04:36:07;;;;;;;6.93;4.87;;;;;;;;;;4897778;29;20230;-67
2022/07/04 04:42:37;;;;;;;6.57;5.40;;;;;;;;;;4880694;29;20329;-68
2022/07/04 04:45:04;;;;;;;7.43;6.70;;;;;;;;;;4898200;29;20238;-68
2022/07/04 04:47:31;;;;;;;10.83;6.47;;;;;;;;;;4894728;29;20242;-67
2022/07/04 04:49:58;;;;;;;9.93;6.57;;;;;;;;;;4896916;29;20242;-70
2022/07/04 04:52:24;;;;;;;14.43;6.83;;;;;;;;;;4878384;29;20230;-68
2022/07/04 04:54:51;;;;;;;8.03;5.50;;;;;;;;;;4897005;29;20241;-68
2022/07/04 04:57:18;;;;;;;9.07;5.30;;;;;;;;;;4894487;29;20674;-69
2022/07/04 04:59:44;;;;;;;7.37;6.23;;;;;;;;;;4897882;29;20622;-68
2022/07/04 05:02:11;;;;;;;12.90;6.27;;;;;;;;;;4895732;29;20266;-67
2022/07/04 05:04:42;;;;;;;9.77;5.83;;;;;;;;;;4893787;29;20242;-68
2022/07/04 05:07:10;;;;;;;8.10;5.50;;;;;;;;;;4941726;28;215331;-71
2022/07/04 05:09:36;;;;;;;10.17;5.97;;;;;;;;;;4951092;28;216509;-71
2022/07/04 05:12:03;;;;;;;10.33;5.03;;;;;;;;;;4976407;28;26254;-68
2022/07/04 05:14:30;;;;;;;7.27;5.23;;;;;;;;;;4959092;28;20717;-68
2022/07/04 05:16:57;;;;;;;9.03;5.00;;;;;;;;;;4976677;28;21295;-70
2022/07/04 05:19:23;;;;;;;8.43;5.43;;;;;;;;;;4974743;28;20240;-71
2022/07/04 05:21:50;;;;;;;7.83;4.60;;;;;;;;;;4976150;28;20935;-68
2022/07/04 05:24:16;;;;;;;8.13;5.10;;;;;;;;;;4947700;28;20691;-70
2022/07/04 05:26:43;;;;;;;7.93;3.53;;;;;;;;;;4959459;28;22197;-71
2022/07/04 05:29:10;;;;;;;7.23;3.60;;;;;;;;;;4959501;28;20299;-70
2022/07/04 05:31:37;;;;;;;5.43;3.40;;;;;;;;;;4960517;28;20800;-68
2022/07/04 05:34:04;;;;;;;6.63;3.53;;;;;;;;;;4937088;28;233667;-68
2022/07/04 05:36:31;;;;;;;11.83;3.50;;;;;;;;;;4958156;28;20220;-70
2022/07/04 05:38:58;;;;;;;7.33;3.37;;;;;;;;;;4994195;28;20621;-69
2022/07/04 05:41:25;;;;;;;8.33;3.43;;;;;;;;;;4994435;28;21061;-67
2022/07/04 05:43:51;;;;;;;5.03;3.20;;;;;;;;;;4995556;28;20227;-70
2022/07/04 05:46:24;;;;;;;11.33;5.17;;;;;;;;;;4985800;28;218180;-69
2022/07/04 05:48:51;;;;;;;9.77;3.43;;;;;;;;;;4996053;28;20246;-68
2022/07/04 05:51:18;;;;;;;3.20;2.90;;;;;;;;;;4994434;28;20239;-70
2022/07/04 05:53:44;;;;;;;8.57;3.07;;;;;;;;;;4989210;28;216571;-68
2022/07/04 05:56:11;;;;;;;8.27;3.20;;;;;;;;;;4994422;28;20734;-69
2022/07/04 05:58:38;;;;;;;7.73;3.07;;;;;;;;;;4975272;28;20285;-69
2022/07/04 06:01:05;;;;;;;8.03;2.80;;;;;;;;;;4990539;28;20992;-68
2022/07/04 06:03:36;;;;;;;5.70;2.80;;;;;;;;;;4979100;28;20226;-68
2022/07/04 06:06:03;;;;;;;6.53;3.00;;;;;;;;;;4974293;28;20583;-68
2022/07/04 06:08:30;;;;;;;6.97;3.10;;;;;;;;;;4992465;28;21626;-68
2022/07/04 06:10:57;;;;;;;8.90;3.07;;;;;;;;;;4992196;28;20234;-68
2022/07/04 06:13:23;;;;;;;7.40;3.10;;;;;;;;;;4991793;28;39509;-70
2022/07/04 06:15:50;;;;;;;5.27;2.60;;;;;;;;;;4976008;28;20235;-70
2022/07/04 06:18:17;;;;;;;6.17;3.10;;;;;;;;;;4995624;28;20308;-67
2022/07/04 06:20:44;;;;;;;6.20;2.77;;;;;;;;;;4994618;28;20242;-67
2022/07/04 06:23:11;;;;;;;6.53;3.20;;;;;;;;;;4975617;28;20215;-68
2022/07/04 06:25:38;;;;;;;4.33;2.70;;;;;;;;;;4991672;28;20741;-69
2022/07/04 06:28:06;;;;;;;4.90;3.00;;;;;;;;;;4985341;28;20257;-69
2022/07/04 06:30:33;;;;;;;9.50;3.00;;;;;;;;;;4996042;28;20235;-68
2022/07/04 06:33:00;;;;;;;9.23;3.03;;;;;;;;;;4975022;28;215775;-68
2022/07/04 06:35:46;;;;;;;5.47;2.77;;;;;;;;;;4993554;28;20227;-68
2022/07/04 06:38:13;;;;;;;3.13;2.07;;;;;;;;;;4976211;28;20235;-68
2022/07/04 06:40:40;;;;;;;3.23;2.30;;;;;;;;;;4992139;28;20231;-69
2022/07/04 06:43:07;;;;;;;4.30;2.33;;;;;;;;;;4993765;28;20306;-68
2022/07/04 06:45:51;;;;;;;3.67;2.30;;;;;;;;;;4977112;28;20254;-68
2022/07/04 06:48:19;;;;;;;4.57;2.00;;;;;;;;;;4983613;28;20231;-69
2022/07/04 06:51:03;;;;;;;3.77;2.37;;;;;;;;;;4999970;28;20242;-69
2022/07/04 06:53:29;;;;;;;2.70;2.07;;;;;;;;;;5002472;28;20590;-69
2022/07/04 06:56:14;;;;;;;3.10;2.17;;;;;;;;;;5002319;28;20302;-69
2022/07/04 06:58:40;;;;;;;4.40;2.30;;;;;;;;;;5000629;28;20227;-70
2022/07/04 07:01:07;;;;;;;3.67;2.50;;;;;;;;;;5002092;28;20257;-70
2022/07/04 07:03:35;;;;;;;2.80;1.93;;;;;;;;;;5003447;28;20252;-70
2022/07/04 07:06:02;;;;;;;2.90;2.00;;;;;;;;;;5003549;28;20726;-69
2022/07/04 07:08:47;;;;;;;3.90;2.00;;;;;;;;;;4999609;28;20234;-69
2022/07/04 07:11:14;;;;;;;1.60;1.50;;;;;;;;;;4985544;28;20242;-69
2022/07/04 07:13:41;;;;;;;4.03;1.70;;;;;;;;;;4999067;28;20228;-69
2022/07/04 07:16:08;;;;;;;4.23;1.90;;;;;;;;;;5000129;28;20270;-73
2022/07/04 07:18:36;;;;;;;3.10;1.90;;;;;;;;;;4984329;28;20223;-69
2022/07/04 07:21:03;;;;;;;2.13;1.50;;;;;;;;;;4999822;28;20309;-69
2022/07/04 07:23:30;;;;;;;4.40;1.83;;;;;;;;;;4984383;28;20236;-70
2022/07/04 07:25:58;;;;;;;3.10;1.70;;;;;;;;;;4981458;28;20596;-69
2022/07/04 07:28:25;;;;;;;2.90;1.80;;;;;;;;;;5000373;28;20235;-70
2022/07/04 07:30:52;;;;;;;2.60;1.87;;;;;;;;;;5001970;28;20267;-69
2022/07/04 07:33:19;;;;;;;5.53;1.80;;;;;;;;;;4999327;28;20231;-69
2022/07/04 07:35:46;;;;;;;4.37;1.60;;;;;;;;;;5001822;28;20698;-68
2022/07/04 07:38:14;;;;;;;2.20;1.40;;;;;;;;;;4998339;28;21025;-69
2022/07/04 07:40:40;;;;;;;1.97;1.40;;;;;;;;;;5000831;28;20222;-69
2022/07/04 07:43:08;;;;;;;3.20;1.20;;;;;;;;;;4984662;28;20239;-70
2022/07/04 07:45:36;;;;;;;2.30;1.33;;;;;;;;;;5000626;28;20289;-69
2022/07/04 07:48:03;;;;;;;2.67;1.63;;;;;;;;;;4998600;28;20238;-70
2022/07/04 07:50:30;;;;;;;4.83;1.50;;;;;;;;;;5001791;28;20255;-69
2022/07/04 07:52:57;;;;;;;1.70;1.60;;;;;;;;;;4999824;28;20231;-69
2022/07/04 07:55:23;;;;;;;3.87;2.30;;;;;;;;;;5001274;28;20254;-69
2022/07/04 07:57:52;;;;;;;8.23;2.37;;;;;;;;;;4999301;28;20777;-69
2022/07/04 08:00:19;;;;;;;4.67;2.53;;;;;;;;;;4998417;28;20266;-72
2022/07/04 08:05:52;;;;;;;5.10;2.80;;;;;;;;;;4987977;28;20231;-69
2022/07/04 08:08:22;;;;;;;5.10;2.53;;;;;;;;;;4983676;28;20241;-68
2022/07/04 08:10:49;;;;;;;4.90;2.40;;;;;;;;;;5000312;28;20703;-69
2022/07/04 08:13:16;;;;;;;5.10;2.60;;;;;;;;;;4983855;28;20238;-69
2022/07/04 08:15:44;;;;;;;4.73;2.40;;;;;;;;;;4998549;28;28232;-70
2022/07/04 08:18:11;;;;;;;5.30;2.53;;;;;;;;;;5000736;28;20302;-68
2022/07/04 08:20:37;;;;;;;6.10;2.30;;;;;;;;;;4999450;28;20226;-70
2022/07/04 08:23:25;;;;;;;5.20;2.43;;;;;;;;;;5000057;28;20236;-69
2022/07/04 08:25:51;;;;;;;4.97;2.40;;;;;;;;;;4999574;28;20230;-69
2022/07/04 08:28:18;;;;;;;3.23;2.33;;;;;;;;;;5000677;28;20300;-69
2022/07/04 08:30:45;;;;;;;3.40;2.57;;;;;;;;;;4983658;28;20224;-69
2022/07/04 08:33:11;;;;;;;7.17;2.30;;;;;;;;;;4984107;28;20231;-68
2022/07/04 08:35:38;;;;;;;3.07;2.60;;;;;;;;;;4998710;28;20227;-69
2022/07/04 08:38:05;;;;;;;5.57;2.77;;;;;;;;;;5000566;28;20318;-69
2022/07/04 08:40:33;;;;;;;2.90;2.40;;;;;;;;;;4998642;28;20231;-70
2022/07/04 08:43:17;;;;;;;3.20;2.10;;;;;;;;;;4983784;28;20230;-69
2022/07/04 08:45:44;;;;;;;3.07;2.70;;;;;;;;;;4982805;28;20235;-70
2022/07/04 08:48:32;;;;;;;4.07;2.00;;;;;;;;;;4984749;28;20234;-69
2022/07/04 08:51:04;;;;;;;2.47;2.17;;;;;;;;;;4999046;28;20322;-69
2022/07/04 08:53:31;;;;;;;4.90;2.30;;;;;;;;;;4981718;28;20239;-72
2022/07/04 08:58:43;;;;;;;5.17;2.00;;;;;;;;;;4985138;28;20732;-69
2022/07/04 09:01:16;;;;;;;4.43;2.20;;;;;;;;;;4999103;28;20239;-69
2022/07/04 09:03:43;;;;;;;4.00;2.20;;;;;;;;;;4988138;28;20234;-70
2022/07/04 09:06:11;;;;;;;5.00;2.50;;;;;;;;;;4998306;28;20586;-73
2022/07/04 09:08:38;;;;;;;7.40;2.50;;;;;;;;;;4970893;28;20235;-71
2022/07/04 09:11:05;;;;;;;4.07;1.90;;;;;;;;;;4999714;28;20234;-70
2022/07/04 09:13:32;;;;;;;1.97;1.73;;;;;;;;;;5004988;28;20594;-70
2022/07/04 09:16:16;;;;;;;2.27;1.80;;;;;;;;;;5001427;28;20234;-71
2022/07/04 09:18:43;;;;;;;3.17;2.00;;;;;;;;;;5004618;28;20617;-70
2022/07/04 09:21:10;;;;;;;3.33;1.93;;;;;;;;;;5002360;28;20234;-70
2022/07/04 09:23:41;;;;;;;5.27;2.30;;;;;;;;;;5003948;28;20312;-70
2022/07/04 09:26:08;;;;;;;5.63;2.60;;;;;;;;;;5001627;28;20237;-70
2022/07/04 09:28:35;;;;;;;4.40;2.50;;;;;;;;;;5003750;28;20264;-70
2022/07/04 09:31:01;;;;;;;8.03;2.90;;;;;;;;;;5002598;28;20233;-70
2022/07/04 09:33:44;;;;;;;3.47;3.17;;;;;;;;;;5003409;28;21472;-69
2022/07/04 09:36:11;;;;;;;3.30;2.47;;;;;;;;;;4984400;28;20243;-72
2022/07/04 09:38:38;;;;;;;2.90;2.27;;;;;;;;;;4985823;28;20253;-69
2022/07/04 09:44:01;;;;;;;2.97;2.20;;;;;;;;;;4983258;28;20228;-70
2022/07/04 09:46:29;;;;;;;2.80;2.30;;;;;;;;;;4985877;28;20222;-71
2022/07/04 09:48:57;;;;;;;4.17;2.27;;;;;;;;;;4986285;28;20229;-69
2022/07/04 09:51:41;;;;;;;3.20;2.30;;;;;;;;;;5001619;28;20231;-70
2022/07/04 09:54:18;;;;;;;5.37;2.30;;;;;;;;;;4995196;28;219265;-69
2022/07/04 09:56:47;;;;;;;2.53;1.97;;;;;;;;;;5001461;28;20222;-69
2022/07/04 09:59:15;;;;;;;2.70;2.20;;;;;;;;;;4983774;28;20237;-70
2022/07/04 10:01:42;;;;;;;4.50;2.27;;;;;;;;;;4985166;28;20231;-70
2022/07/04 10:04:12;;;;;;;3.40;2.17;;;;;;;;;;4980675;28;20366;-70
2022/07/04 10:06:40;;;;;;;6.73;2.10;;;;;;;;;;4992215;28;20228;-69
2022/07/04 10:09:16;;;;;;;4.27;2.20;;;;;;;;;;5002912;28;20223;-69
2022/07/04 10:11:47;;;;;;;2.47;1.60;;;;;;;;;;4984471;28;20306;-68
2022/07/04 10:14:31;;;;;;;2.00;1.77;;;;;;;;;;5000848;28;20231;-70
2022/07/04 10:16:58;;;;;;;2.70;1.97;;;;;;;;;;5001089;28;20223;-70
2022/07/04 10:19:26;;;;;;;2.30;1.90;;;;;;;;;;4983932;28;20227;-70
2022/07/04 10:21:53;;;;;;;4.00;1.90;;;;;;;;;;4986021;28;20228;-68
2022/07/04 10:24:19;;;;;;;1.40;1.30;;;;;;;;;;4999619;28;20234;-70
2022/07/04 10:27:04;;;;;;;2.87;1.57;;;;;;;;;;4973601;28;216026;-69
2022/07/04 10:29:30;;;;;;;1.40;1.30;;;;;;;;;;4983250;28;20238;-70
2022/07/04 10:31:57;;;;;;;2.33;1.40;;;;;;;;;;5002652;28;20238;-70
2022/07/04 10:34:25;;;;;;;2.10;1.50;;;;;;;;;;4967121;28;20586;-70
2022/07/04 10:36:52;;;;;;;4.60;1.70;;;;;;;;;;4999202;28;20242;-69
2022/07/04 10:39:24;;;;;;;3.80;1.23;;;;;;;;;;5000253;28;20309;-70
2022/07/04 10:41:58;;;;;;;2.53;1.50;;;;;;;;;;5003378;28;20248;-69
2022/07/04 10:44:26;;;;;;;3.40;1.30;;;;;;;;;;5001792;28;20231;-69
2022/07/04 10:46:56;;;;;;;2.07;1.50;;;;;;;;;;5000880;28;20227;-68
2022/07/04 10:49:25;;;;;;;1.90;1.43;;;;;;;;;;5003341;28;20326;-69
2022/07/04 10:51:52;;;;;;;2.43;1.40;;;;;;;;;;5001280;28;20231;-70
2022/07/04 10:54:19;;;;;;;2.03;1.40;;;;;;;;;;5002650;28;20715;-68
2022/07/04 10:56:45;;;;;;;2.47;1.70;;;;;;;;;;5000778;28;20670;-69
2022/07/04 10:59:13;;;;;;;2.50;1.50;;;;;;;;;;5003068;28;20234;-69
2022/07/04 11:02:06;;;;;;;1.50;1.40;;;;;;;;;;4998541;28;20239;-69
2022/07/04 11:05:03;;;;;;;1.53;1.23;;;;;;;;;;4999887;28;20223;-67
2022/07/04 11:07:30;;;;;;;1.90;1.30;;;;;;;;;;5000543;28;20254;-68
2022/07/04 11:10:21;;;;;;;1.30;1.20;;;;;;;;;;5002070;28;20643;-67
2022/07/04 11:13:07;;;;;;;1.63;1.23;;;;;;;;;;4947849;28;219446;-65
2022/07/04 11:15:34;;;;;;;1.20;1.10;;;;;;;;;;4992097;28;20270;-66
2022/07/04 11:18:01;;;;;;;1.40;1.20;;;;;;;;;;4993664;28;20235;-66
2022/07/04 11:20:29;;;;;;;1.10;1.00;;;;;;;;;;4993219;28;20874;-67
2022/07/04 11:23:11;;;;;;;1.40;1.30;;;;;;;;;;4993195;28;20273;-66
2022/07/04 11:25:39;;;;;;;1.70;1.30;;;;;;;;;;4994155;28;20899;-67
2022/07/04 11:28:36;;;;;;;2.27;1.30;;;;;;;;;;4988008;28;20239;-66
2022/07/04 11:31:10;;;;;;;2.07;1.57;;;;;;;;;;4967787;28;214804;-62
2022/07/04 11:33:39;;;;;;;1.07;1.03;;;;;;;;;;4972695;28;20379;-67
2022/07/04 11:36:17;;;;;;;1.20;0.87;;;;;;;;;;4959755;28;20303;-66
2022/07/04 11:38:59;;;;;;;1.97;1.50;;;;;;;;;;4992603;28;22007;-68
2022/07/04 11:47:21;;;;;;;1.57;1.20;;;;;;;;;;4978292;28;21029;-66
2022/07/04 11:49:52;;;;;;;1.63;1.07;;;;;;;;;;4994533;28;20266;-66
2022/07/04 11:52:20;;;;;;;1.20;1.10;;;;;;;;;;4990893;28;20230;-67
2022/07/04 11:55:07;;;;;;;1.50;1.40;;;;;;;;;;4994075;28;20240;-65
2022/07/04 11:57:35;;;;;;;2.53;1.20;;;;;;;;;;4991767;28;20239;-66
2022/07/04 12:00:09;;;;;;;2.10;1.30;;;;;;;;;;4993087;28;20322;-67
2022/07/04 12:02:43;;;;;;;1.40;1.30;;;;;;;;;;4969106;28;28401;-67
2022/07/04 12:05:10;;;;;;;2.10;1.43;;;;;;;;;;4993694;28;20256;-67
2022/07/04 12:07:38;;;;;;;1.67;1.30;;;;;;;;;;5001649;28;20261;-66
2022/07/04 12:10:08;;;;;;;2.60;1.10;;;;;;;;;;4982702;28;20307;-66
2022/07/04 12:12:35;;;;;;;2.30;1.37;;;;;;;;;;4972568;28;20779;-66
2022/07/04 12:15:21;;;;;;;2.20;1.30;;;;;;;;;;4988277;28;20260;-68
2022/07/04 12:17:50;;;;;;;1.30;1.20;;;;;;;;;;4984342;28;217770;-70
2022/07/04 12:20:17;;;;;;;1.50;1.40;;;;;;;;;;4988710;28;27460;-68
2022/07/04 12:22:58;;;;;;;2.13;1.20;;;;;;;;;;4994529;28;20228;-65
2022/07/04 12:25:31;;;;;;;1.70;1.50;;;;;;;;;;4997339;28;20225;-66
2022/07/04 12:28:01;;;;;;;1.40;1.10;;;;;;;;;;4997716;28;20309;-68
2022/07/04 12:30:30;;;;;;;1.30;1.20;;;;;;;;;;4998424;28;20234;-68
2022/07/04 12:32:58;;;;;;;2.10;1.30;;;;;;;;;;4971800;28;219068;-68
2022/07/04 12:35:32;;;;;;;2.50;1.20;;;;;;;;;;5000147;28;20233;-67
2022/07/04 12:38:11;;;;;;;1.83;1.30;;;;;;;;;;4976211;28;20397;-63
2022/07/04 12:40:52;;;;;;;1.60;1.50;;;;;;;;;;4972421;28;20228;-68
2022/07/04 12:43:20;;;;;;;1.33;1.20;;;;;;;;;;4991071;28;20894;-69
2022/07/04 12:45:48;;;;;;;1.30;1.20;;;;;;;;;;4993724;28;20828;-68
2022/07/04 12:48:20;;;;;;;1.53;1.30;;;;;;;;;;4995376;28;20228;-68
2022/07/04 12:50:48;;;;;;;1.40;1.30;;;;;;;;;;4986559;28;223322;-69
2022/07/04 12:53:16;;;;;;;1.50;1.30;;;;;;;;;;4976020;28;21848;-67
2022/07/04 12:55:47;;;;;;;1.77;1.50;;;;;;;;;;4994419;28;20230;-69
2022/07/04 12:58:15;;;;;;;1.37;1.10;;;;;;;;;;4996181;28;20242;-68
2022/07/04 13:00:44;;;;;;;1.40;1.30;;;;;;;;;;4976338;28;20235;-70
2022/07/04 13:03:11;;;;;;;2.77;1.73;;;;;;;;;;4996841;28;20322;-69
2022/07/04 13:05:38;;;;;;;2.37;1.53;;;;;;;;;;4993334;28;20223;-70
2022/07/04 13:08:07;;;;;;;1.60;1.50;;;;;;;;;;4992124;28;29057;-68
2022/07/04 13:12:24;;;;;;;1.57;1.40;;;;;;;;;;5001722;28;20238;-66
2022/07/04 13:13:39;;;;;;;2.13;1.43;;;;;;;;;;4983664;28;20232;-67
2022/07/04 13:16:23;;;;;;;1.57;1.40;;;;;;;;;;4987573;28;20218;-67
2022/07/04 13:18:51;;;;;;;11.30;2.30;;;;;;;;;;5003792;28;20249;-68
2022/07/04 13:21:19;;;;;;;2.03;1.67;;;;;;;;;;4985574;28;20233;-66
2022/07/04 13:23:46;;;;;;;1.90;1.40;;;;;;;;;;5003522;28;20727;-67
2022/07/04 13:26:12;;;;;;;1.20;1.10;;;;;;;;;;4986932;28;20234;-68
2022/07/04 13:28:40;;;;;;;2.20;1.40;;;;;;;;;;4988685;28;20704;-67
2022/07/04 13:31:08;;;;;;;1.57;1.40;;;;;;;;;;5001043;28;20272;-69
2022/07/04 13:33:35;;;;;;;1.67;1.50;;;;;;;;;;4985768;28;21165;-67
2022/07/04 13:36:03;;;;;;;1.87;1.30;;;;;;;;;;4984001;28;20245;-64
2022/07/04 13:38:48;;;;;;;1.20;1.10;;;;;;;;;;4987744;28;20239;-67
2022/07/04 13:41:33;;;;;;;1.50;1.40;;;;;;;;;;4987964;28;20590;-67
2022/07/04 13:44:01;;;;;;;3.47;1.70;;;;;;;;;;5002214;28;20228;-67
2022/07/04 13:46:28;;;;;;;2.67;1.83;;;;;;;;;;5003841;28;20223;-66
2022/07/04 13:48:55;;;;;;;2.93;2.07;;;;;;;;;;5002057;28;20317;-67
2022/07/04 13:51:23;;;;;;;4.20;2.13;;;;;;;;;;5002247;28;20245;-70
2022/07/04 13:53:50;;;;;;;2.27;2.07;;;;;;;;;;5002879;28;20242;-66
2022/07/04 13:56:18;;;;;;;7.70;2.07;;;;;;;;;;5001311;28;20235;-67
2022/07/04 13:58:45;;;;;;;3.37;2.20;;;;;;;;;;4987258;28;20700;-66
2022/07/04 14:01:14;;;;;;;2.67;2.47;;;;;;;;;;5001862;28;20595;-67
2022/07/04 14:03:42;;;;;;;3.53;2.20;;;;;;;;;;5003340;28;21848;-66
2022/07/04 14:06:09;;;;;;;3.10;2.30;;;;;;;;;;5002245;28;20230;-66
2022/07/04 14:08:36;;;;;;;3.93;2.57;;;;;;;;;;4998226;28;20933;-67
2022/07/04 14:11:02;;;;;;;2.50;2.30;;;;;;;;;;4989518;28;20344;-68
2022/07/04 14:13:29;;;;;;;2.60;2.40;;;;;;;;;;4984945;28;229080;-67
2022/07/04 14:15:56;;;;;;;4.87;2.50;;;;;;;;;;4991827;28;23922;-68
2022/07/04 14:18:24;;;;;;;4.70;2.60;;;;;;;;;;4964330;28;216021;-69
2022/07/04 14:20:54;;;;;;;4.33;2.80;;;;;;;;;;4975198;28;20316;-66
2022/07/04 14:23:40;;;;;;;2.90;2.50;;;;;;;;;;4975118;28;20225;-67
2022/07/04 14:26:13;;;;;;;4.23;3.00;;;;;;;;;;4959715;28;20228;-66
2022/07/04 14:28:40;;;;;;;3.03;2.73;;;;;;;;;;4959672;28;20223;-67
2022/07/04 14:31:07;;;;;;;3.37;3.07;;;;;;;;;;4985994;28;20223;-66
2022/07/04 14:33:34;;;;;;;4.20;3.27;;;;;;;;;;4999879;28;20250;-71
2022/07/04 14:36:01;;;;;;;4.53;3.47;;;;;;;;;;4984518;28;20964;-70
2022/07/04 14:38:28;;;;;;;3.83;2.80;;;;;;;;;;5000230;28;20245;-67
2022/07/04 14:40:55;;;;;;;3.80;3.10;;;;;;;;;;5001541;28;20227;-66
2022/07/04 14:43:22;;;;;;;4.40;3.40;;;;;;;;;;4993528;28;20239;-67
2022/07/04 14:45:49;;;;;;;4.47;3.27;;;;;;;;;;5001147;28;20239;-66
2022/07/04 14:48:16;;;;;;;5.00;3.20;;;;;;;;;;5000665;28;20237;-66
2022/07/04 14:50:43;;;;;;;2.93;2.60;;;;;;;;;;5001900;28;20322;-66
2022/07/04 14:53:10;;;;;;;2.70;2.30;;;;;;;;;;4987549;28;20235;-67
2022/07/04 14:55:37;;;;;;;3.23;2.00;;;;;;;;;;4986914;28;20326;-66
2022/07/04 14:58:04;;;;;;;3.30;2.10;;;;;;;;;;4969084;28;20231;-67
2022/07/04 15:00:31;;;;;;;3.60;2.00;;;;;;;;;;4999843;28;20223;-66
2022/07/04 15:02:58;;;;;;;3.60;1.70;;;;;;;;;;4999686;28;20235;-66
2022/07/04 15:05:25;;;;;;;2.43;1.80;;;;;;;;;;5000550;28;20221;-66
2022/07/04 15:08:09;;;;;;;2.50;1.90;;;;;;;;;;4994048;28;20230;-66
2022/07/04 15:10:36;;;;;;;2.57;1.50;;;;;;;;;;4999190;28;20227;-66
2022/07/04 15:13:21;;;;;;;2.50;1.70;;;;;;;;;;4999451;28;20265;-66
2022/07/04 15:15:48;;;;;;;3.20;1.43;;;;;;;;;;4999204;28;20603;-66
2022/07/04 15:18:34;;;;;;;3.17;1.50;;;;;;;;;;4997431;28;20227;-66
2022/07/04 15:26:36;;;;;;;3.17;1.33;;;;;;;;;;4999318;28;20268;-66
2022/07/04 15:29:22;;;;;;;1.70;1.30;;;;;;;;;;4965557;28;20222;-66
2022/07/04 15:31:50;;;;;;;1.67;1.50;;;;;;;;;;4999048;28;20227;-67
2022/07/04 15:34:35;;;;;;;1.73;1.30;;;;;;;;;;4969866;28;20330;-66
2022/07/04 15:37:16;;;;;;;2.63;1.40;;;;;;;;;;4965603;28;20309;-66
2022/07/04 15:39:46;;;;;;;10.47;3.00;;;;;;;;;;4979063;28;24623;-61
2022/07/04 15:42:15;;;;;;;11.43;3.67;;;;;;;;;;4967409;28;20335;-61
2022/07/04 15:44:45;;;;;;;9.73;3.67;;;;;;;;;;4977426;28;20242;-61
2022/07/04 15:47:15;;;;;;;4.00;1.90;;;;;;;;;;4981046;28;20238;-61
2022/07/04 15:49:44;;;;;;;4.77;1.83;;;;;;;;;;4979846;28;20247;-66
2022/07/04 15:52:12;;;;;;;3.13;1.30;;;;;;;;;;4981879;28;20695;-62
2022/07/04 15:54:40;;;;;;;4.20;1.53;;;;;;;;;;4979925;28;20243;-61
2022/07/04 15:57:08;;;;;;;3.47;1.20;;;;;;;;;;4981895;28;20227;-60
2022/07/04 15:59:36;;;;;;;4.90;1.50;;;;;;;;;;4980672;28;20241;-61
2022/07/04 16:02:04;;;;;;;3.83;1.47;;;;;;;;;;4979290;28;20224;-61
2022/07/04 16:04:32;;;;;;;6.17;1.30;;;;;;;;;;4980271;28;20317;-66
2022/07/04 16:07:01;;;;;;;2.00;1.00;;;;;;;;;;4979323;28;20314;-66
2022/07/04 16:09:30;;;;;;;3.80;1.10;;;;;;;;;;4979443;28;20588;-66
2022/07/04 16:11:57;;;;;;;2.33;1.27;;;;;;;;;;4969720;28;20304;-67
2022/07/04 16:14:32;;;;;;;1.73;1.13;;;;;;;;;;4956591;28;20260;-68
2022/07/04 16:17:17;;;;;;;2.70;1.00;;;;;;;;;;4971842;28;20246;-68
2022/07/04 16:19:44;;;;;;;3.47;1.30;;;;;;;;;;4971701;28;20369;-67
2022/07/04 16:22:11;;;;;;;1.47;0.93;;;;;;;;;;4979717;28;20234;-65
2022/07/04 16:24:38;;;;;;;2.27;1.10;;;;;;;;;;4957503;28;20243;-66
2022/07/04 16:27:04;;;;;;;2.07;0.73;;;;;;;;;;4974627;28;20240;-66